Terminal Aerodrome Forecast
Issued by NWS

Home | Current Version | Previous Version | Text Only | Print | Product List | Glossary On
Versions: 1 2 3 4 5 6 7 8 9 10 11 12 13 14 15 16 17 18
000
FTUS41 KPHI 051127
TAFPNE
TAF
KPNE 051127Z 0512/0612 06008KT P6SM BKN015
     FM051400 07008KT P6SM BKN025
     FM051600 08008KT P6SM BKN035
     FM052000 09006KT P6SM SCT045
     FM060300 VRB03KT P6SM SKC=

USA.gov is the U.S. government's official web portal to all federal, state and local government web resources and services.